createdAt,value
2023-05-04T00:01:34.410Z,12.04
2023-05-04T00:04:38.702Z,12.01
2023-05-04T00:07:45.815Z,12.02
2023-05-04T00:10:33.507Z,11.97
2023-05-04T00:13:10.669Z,11.94
2023-05-04T00:15:52.557Z,11.93
2023-05-04T00:19:23.134Z,11.88
2023-05-04T00:22:23.411Z,11.90
2023-05-04T00:25:01.962Z,11.87
2023-05-04T00:27:41.244Z,11.84
2023-05-04T00:30:16.797Z,11.80
2023-05-04T00:32:51.383Z,11.74
2023-05-04T00:35:39.487Z,11.69
2023-05-04T00:38:22.389Z,11.66
2023-05-04T00:41:17.486Z,11.62
2023-05-04T00:44:14.221Z,11.58
2023-05-04T00:47:07.435Z,11.53
2023-05-04T00:56:04.671Z,11.37
2023-05-04T00:58:46.359Z,11.27
2023-05-04T01:01:27.084Z,11.33
2023-05-04T01:04:31.838Z,11.31
2023-05-04T01:07:57.390Z,11.30
2023-05-04T01:10:41.183Z,11.29
2023-05-04T01:13:29.516Z,11.27
2023-05-04T01:16:19.870Z,11.27
2023-05-04T01:19:12.658Z,11.28
2023-05-04T01:21:57.489Z,11.27
2023-05-04T01:24:35.977Z,11.26
2023-05-04T01:27:19.883Z,11.25
2023-05-04T01:30:20.714Z,11.26
2023-05-04T01:33:14.045Z,11.25
2023-05-04T01:36:10.596Z,11.27
2023-05-04T01:38:56.014Z,11.25
2023-05-04T01:42:05.068Z,11.24
2023-05-04T01:44:44.074Z,11.23
2023-05-04T01:47:19.995Z,11.19
2023-05-04T01:49:54.018Z,11.18
2023-05-04T01:52:26.159Z,11.19
2023-05-04T01:55:05.598Z,11.20
2023-05-04T01:57:35.555Z,11.18
2023-05-04T02:00:13.711Z,11.14
2023-05-04T02:02:54.885Z,11.12
2023-05-04T02:05:47.363Z,11.08
2023-05-04T02:08:29.769Z,11.05
2023-05-04T02:11:56.861Z,11.01
2023-05-04T02:14:52.033Z,10.95
2023-05-04T02:17:52.319Z,10.94
2023-05-04T02:20:51.904Z,10.96
2023-05-04T02:23:42.856Z,11.02
2023-05-04T02:26:14.937Z,11.02
2023-05-04T02:28:53.150Z,11.02
2023-05-04T02:31:27.225Z,11.01
2023-05-04T02:34:22.040Z,10.98
2023-05-04T02:36:59.547Z,10.96
2023-05-04T02:39:36.119Z,10.94
2023-05-04T02:42:37.072Z,10.95
2023-05-04T02:45:14.823Z,10.99
2023-05-04T02:48:11.661Z,10.99
2023-05-04T02:50:51.193Z,10.98
2023-05-04T02:54:02.286Z,10.96
2023-05-04T02:56:40.965Z,10.93
2023-05-04T02:59:58.541Z,10.92
2023-05-04T03:02:33.380Z,10.91
2023-05-04T03:05:35.223Z,10.91
2023-05-04T03:08:08.318Z,10.93
2023-05-04T03:10:52.815Z,10.95
2023-05-04T03:13:29.028Z,10.96
2023-05-04T03:17:45.658Z,10.98
2023-05-04T03:20:25.967Z,11.24
2023-05-04T03:23:40.605Z,11.26
2023-05-04T03:26:28.557Z,11.32
2023-05-04T03:29:07.471Z,11.34
2023-05-04T03:31:40.420Z,11.40
2023-05-04T03:34:33.214Z,11.43
2023-05-04T03:37:20.628Z,11.48
2023-05-04T03:40:00.470Z,11.49
2023-05-04T03:43:16.230Z,11.53
2023-05-04T03:46:24.540Z,11.60
2023-05-04T03:49:01.241Z,11.63
2023-05-04T03:51:59.589Z,11.67
2023-05-04T03:54:33.394Z,11.74
2023-05-04T03:57:37.031Z,11.82
2023-05-04T04:04:00.792Z,12.08
2023-05-04T04:11:01.179Z,12.21
2023-05-04T04:13:58.990Z,12.24
2023-05-04T04:17:33.448Z,12.27
2023-05-04T04:20:26.569Z,12.32
2023-05-04T04:23:09.742Z,12.35
2023-05-04T04:26:01.378Z,12.36
2023-05-04T04:28:32.247Z,12.25
2023-05-04T04:34:47.356Z,12.44
2023-05-04T04:48:37.561Z,12.67
2023-05-04T04:56:51.588Z,12.90
2023-05-04T04:59:58.403Z,12.84
2023-05-04T05:03:29.733Z,13.05
2023-05-04T05:06:19.564Z,13.26
2023-05-04T05:12:38.305Z,13.53
2023-05-04T05:19:22.209Z,13.51
2023-05-04T05:22:53.973Z,13.51
2023-05-04T05:35:46.699Z,13.64
2023-05-04T05:36:44.689Z,13.90
2023-05-04T05:50:42.552Z,14.84
2023-05-04T06:02:48.765Z,15.28
2023-05-04T06:06:46.227Z,15.43
2023-05-04T06:09:49.845Z,15.61
2023-05-04T06:22:25.780Z,15.91
2023-05-04T06:25:50.833Z,16.03
2023-05-04T06:37:43.630Z,16.25
2023-05-04T06:41:17.614Z,16.26
2023-05-04T06:44:18.131Z,16.33
2023-05-04T06:47:11.983Z,16.40
2023-05-04T06:49:48.581Z,16.55
2023-05-04T06:52:57.449Z,16.63
2023-05-04T06:55:55.430Z,16.77
2023-05-04T07:02:47.070Z,16.84
2023-05-04T07:05:37.794Z,16.92
2023-05-04T07:13:46.104Z,16.84
2023-05-04T07:22:27.546Z,16.97
2023-05-04T07:30:13.830Z,17.29
2023-05-04T07:33:31.721Z,17.46
2023-05-04T07:36:49.416Z,17.59
2023-05-04T07:39:31.146Z,17.64
2023-05-04T07:46:26.045Z,17.98
2023-05-04T07:49:43.715Z,18.05
2023-05-04T07:52:40.995Z,18.17
2023-05-04T07:56:02.360Z,18.25
2023-05-04T07:58:51.779Z,18.27
2023-05-04T08:01:48.063Z,18.27
2023-05-04T08:04:45.928Z,18.24
2023-05-04T08:07:17.949Z,18.29
2023-05-04T08:10:01.126Z,18.39
2023-05-04T08:13:30.576Z,18.56
2023-05-04T08:17:18.805Z,18.67
2023-05-04T08:20:14.297Z,18.69
2023-05-04T08:24:04.133Z,18.72
2023-05-04T08:28:04.817Z,18.87
2023-05-04T08:30:58.328Z,18.94
2023-05-04T08:34:47.326Z,18.88
2023-05-04T08:46:10.561Z,19.10
2023-05-04T09:16:20.913Z,20.07
2023-05-04T09:19:08.830Z,20.28
2023-05-04T09:22:53.133Z,20.35
2023-05-04T09:25:50.031Z,20.47
2023-05-04T09:40:04.948Z,21.01
2023-05-04T09:43:25.658Z,21.03
2023-05-04T09:56:08.528Z,21.33
2023-05-04T09:59:16.377Z,21.38
2023-05-04T10:02:38.336Z,21.61
2023-05-04T10:05:22.838Z,21.71
2023-05-04T10:08:58.778Z,21.85
2023-05-04T10:16:23.804Z,22.03
2023-05-04T10:19:32.560Z,22.13
2023-05-04T10:23:14.106Z,22.12
2023-05-04T10:27:24.130Z,22.26
2023-05-04T10:52:28.548Z,22.24
2023-05-04T10:55:45.329Z,22.41
2023-05-04T11:07:59.390Z,22.88
2023-05-04T11:11:23.521Z,23.02
2023-05-04T11:14:14.437Z,23.21
2023-05-04T11:18:09.232Z,23.33
2023-05-04T11:25:37.193Z,23.34
2023-05-04T11:33:46.195Z,23.78
2023-05-04T11:36:50.035Z,23.96
2023-05-04T11:43:45.317Z,23.78
2023-05-04T11:51:51.308Z,23.66
2023-05-04T12:02:16.376Z,23.91
2023-05-04T12:05:25.386Z,24.07
2023-05-04T12:08:49.910Z,24.22
2023-05-04T12:11:43.212Z,24.16
2023-05-04T12:14:35.081Z,24.01
2023-05-04T12:18:40.429Z,23.93
2023-05-04T12:22:35.129Z,23.90
2023-05-04T12:26:05.974Z,23.75
2023-05-04T12:29:10.593Z,23.78
2023-05-04T12:32:46.657Z,23.88
2023-05-04T12:36:40.464Z,23.99
2023-05-04T12:45:27.520Z,23.97
2023-05-04T12:48:29.163Z,23.94
2023-05-04T12:51:28.044Z,24.01
2023-05-04T12:55:24.693Z,24.13
2023-05-04T12:59:16.909Z,24.19
2023-05-04T13:02:19.803Z,24.13
2023-05-04T13:14:42.949Z,24.01
2023-05-04T13:17:58.178Z,24.11
2023-05-04T13:20:56.109Z,24.11
2023-05-04T13:23:39.508Z,24.16
2023-05-04T13:26:36.990Z,24.26
2023-05-04T13:46:39.751Z,24.43
2023-05-04T13:49:34.090Z,24.69
2023-05-04T13:52:47.307Z,24.86
2023-05-04T13:56:14.554Z,24.90
2023-05-04T13:59:58.386Z,24.78
2023-05-04T14:04:09.038Z,24.76
2023-05-04T14:07:29.467Z,24.98
2023-05-04T14:11:37.621Z,25.11
2023-05-04T14:14:41.136Z,25.16
2023-05-04T14:17:21.924Z,25.36
2023-05-04T14:21:07.959Z,25.45
2023-05-04T14:24:22.641Z,25.67
2023-05-04T14:27:36.595Z,25.79
2023-05-04T14:35:10.932Z,25.93
2023-05-04T14:38:05.860Z,25.72
2023-05-04T14:40:45.479Z,25.62
2023-05-04T14:48:03.490Z,25.26
2023-05-04T14:51:07.652Z,25.11
2023-05-04T14:54:22.122Z,25.21
2023-05-04T15:07:14.752Z,24.82
2023-05-04T15:10:15.707Z,24.93
2023-05-04T15:13:45.009Z,25.05
2023-05-04T15:16:48.366Z,24.98
2023-05-04T15:19:59.413Z,24.72
2023-05-04T15:24:04.906Z,24.49
2023-05-04T15:27:06.492Z,24.11
2023-05-04T15:30:02.790Z,23.79
2023-05-04T15:45:12.096Z,24.47
2023-05-04T16:13:07.636Z,22.64
2023-05-04T16:16:17.067Z,22.49
2023-05-04T16:24:29.735Z,22.14
2023-05-04T16:27:29.740Z,22.00
2023-05-04T16:31:00.426Z,21.90
2023-05-04T16:34:37.036Z,21.79
2023-05-04T16:42:05.194Z,21.54
2023-05-04T16:44:54.473Z,21.48
2023-05-04T16:47:53.783Z,21.42
2023-05-04T16:59:25.291Z,21.17
2023-05-04T17:02:26.213Z,21.11
2023-05-04T17:10:46.260Z,20.97
2023-05-04T17:39:33.203Z,20.29
2023-05-04T17:57:59.359Z,19.87
2023-05-04T18:01:39.705Z,19.93
2023-05-04T18:05:26.690Z,19.89
2023-05-04T18:12:24.161Z,19.83
2023-05-04T18:15:48.948Z,19.81
2023-05-04T18:19:55.757Z,19.79
2023-05-04T18:28:25.677Z,19.77
2023-05-04T18:50:28.492Z,19.51
2023-05-04T18:54:26.374Z,19.56
2023-05-04T18:57:57.140Z,19.52
2023-05-04T19:00:56.240Z,19.46
2023-05-04T19:08:18.708Z,19.39
2023-05-04T19:11:19.762Z,19.35
2023-05-04T19:14:15.880Z,19.26
2023-05-04T19:26:25.589Z,19.16
2023-05-04T19:30:24.581Z,19.09
2023-05-04T19:33:45.022Z,19.07
2023-05-04T19:44:22.533Z,18.95
2023-05-04T19:50:47.338Z,18.93
2023-05-04T19:54:33.846Z,18.89
2023-05-04T19:57:30.896Z,18.85
2023-05-04T20:00:26.068Z,18.79
2023-05-04T20:07:50.731Z,18.66
2023-05-04T20:15:54.976Z,18.56
2023-05-04T20:19:25.641Z,18.50
2023-05-04T20:22:25.630Z,18.44
2023-05-04T20:25:23.819Z,18.39
2023-05-04T20:28:09.370Z,18.38
2023-05-04T20:31:12.083Z,18.34
2023-05-04T20:39:21.184Z,18.29
2023-05-04T20:42:46.253Z,18.25
2023-05-04T20:45:56.869Z,18.28
2023-05-04T20:49:57.504Z,18.25
2023-05-04T20:53:08.050Z,18.20
2023-05-04T20:56:10.678Z,18.15
2023-05-04T20:59:59.168Z,18.12
2023-05-04T21:04:00.188Z,18.07
2023-05-04T21:06:48.351Z,18.04
2023-05-04T21:09:51.671Z,18.01
2023-05-04T21:12:29.141Z,18.00
2023-05-04T21:20:04.544Z,17.95
2023-05-04T21:22:38.381Z,17.90
2023-05-04T21:25:52.083Z,17.87
2023-05-04T21:28:35.726Z,17.86
2023-05-04T21:31:26.189Z,17.83
2023-05-04T21:34:25.862Z,17.80
2023-05-04T21:36:56.918Z,17.74
2023-05-04T21:40:24.707Z,17.71
2023-05-04T21:42:57.630Z,17.69
2023-05-04T21:45:38.979Z,17.64
2023-05-04T21:48:16.610Z,17.61
2023-05-04T21:51:20.504Z,17.56
2023-05-04T21:54:47.803Z,17.49
2023-05-04T21:57:19.577Z,17.31
2023-05-04T22:00:50.469Z,17.29
2023-05-04T22:03:23.569Z,17.29
2023-05-04T22:07:11.501Z,17.27
2023-05-04T22:09:46.551Z,17.28
2023-05-04T22:13:02.522Z,17.26
2023-05-04T22:16:03.440Z,17.23
2023-05-04T22:19:06.548Z,17.17
2023-05-04T22:21:47.609Z,17.13
2023-05-04T22:24:39.214Z,17.07
2023-05-04T22:27:20.037Z,17.02
2023-05-04T22:29:59.062Z,16.97
2023-05-04T22:32:35.623Z,16.92
2023-05-04T22:35:33.432Z,16.86
2023-05-04T22:38:14.856Z,16.83
2023-05-04T22:41:42.527Z,16.73
2023-05-04T22:44:33.988Z,16.60
2023-05-04T22:47:18.714Z,16.50
2023-05-04T22:50:16.897Z,16.46
2023-05-04T22:53:05.561Z,16.40
2023-05-04T22:55:50.358Z,16.30
2023-05-04T22:59:21.053Z,16.23
2023-05-04T23:02:02.694Z,16.15
2023-05-04T23:04:47.049Z,16.03
2023-05-04T23:07:32.284Z,15.91
2023-05-04T23:10:13.819Z,15.81
2023-05-04T23:12:50.080Z,15.72
2023-05-04T23:15:46.080Z,15.63
2023-05-04T23:18:20.932Z,15.52
2023-05-04T23:21:13.500Z,15.48
2023-05-04T23:24:00.226Z,15.43
2023-05-04T23:26:39.151Z,15.37
2023-05-04T23:29:20.164Z,15.34
2023-05-04T23:31:57.871Z,15.27
2023-05-04T23:34:30.701Z,15.21
2023-05-04T23:37:09.526Z,15.16
2023-05-04T23:39:42.822Z,15.11
2023-05-04T23:42:18.929Z,15.06
2023-05-04T23:44:54.678Z,15.01
2023-05-04T23:48:12.630Z,14.91
2023-05-04T23:51:14.274Z,14.80
2023-05-04T23:54:09.635Z,14.72
2023-05-04T23:56:43.199Z,14.64
2023-05-04T23:59:32.402Z,14.58
